createdAt,value
2019-04-03T04:00:55.397Z,10.07
2019-04-03T04:01:52.885Z,10.05
2019-04-03T04:03:45.849Z,9.93
2019-04-03T04:04:48.060Z,9.98
2019-04-03T04:06:38.307Z,9.74
2019-04-03T04:07:38.315Z,9.81
2019-04-03T04:09:31.018Z,9.75
2019-04-03T04:10:35.010Z,9.64
2019-04-03T04:12:23.353Z,9.80
2019-04-03T04:13:23.284Z,9.74
2019-04-03T04:15:15.778Z,9.80
2019-04-03T04:16:15.669Z,9.85
2019-04-03T04:18:08.352Z,9.85
2019-04-03T04:19:08.197Z,9.96
2019-04-03T04:21:00.891Z,10.10
2019-04-03T04:22:00.761Z,10.07
2019-04-03T04:23:56.288Z,9.93
2019-04-03T04:24:53.306Z,9.84
2019-04-03T04:26:46.007Z,9.78
2019-04-03T04:27:45.874Z,9.75
2019-04-03T04:29:41.267Z,9.82
2019-04-03T04:30:38.423Z,9.89
2019-04-03T04:32:31.200Z,9.82
2019-04-03T04:33:30.985Z,9.96
2019-04-03T04:35:23.657Z,9.81
2019-04-03T04:36:24.223Z,9.64
2019-04-03T04:38:16.376Z,9.71
2019-04-03T04:39:16.131Z,9.66
2019-04-03T04:41:08.757Z,9.71
2019-04-03T04:42:08.646Z,9.63
2019-04-03T04:44:01.528Z,9.77
2019-04-03T04:45:01.602Z,9.81
2019-04-03T04:46:53.903Z,9.82
2019-04-03T04:47:53.755Z,9.84
2019-04-03T04:49:46.447Z,9.84
2019-04-03T04:50:46.309Z,9.81
2019-04-03T04:52:39.015Z,9.93
2019-04-03T04:53:38.892Z,9.96
2019-04-03T04:55:33.153Z,10.00
2019-04-03T04:56:31.419Z,9.98
2019-04-03T04:58:24.151Z,9.92
2019-04-03T04:59:24.018Z,10.02
2019-04-03T05:01:17.835Z,10.05
2019-04-03T05:02:17.831Z,10.07
2019-04-03T05:04:09.219Z,9.95
2019-04-03T05:05:09.221Z,9.95
2019-04-03T05:07:01.810Z,9.96
2019-04-03T05:08:02.547Z,9.92
2019-04-03T05:09:54.333Z,9.85
2019-04-03T05:10:54.221Z,9.84
2019-04-03T05:12:47.062Z,9.80
2019-04-03T05:13:47.211Z,9.92
2019-04-03T05:15:39.524Z,9.85
2019-04-03T05:16:39.346Z,9.89
2019-04-03T05:18:32.120Z,10.00
2019-04-03T05:19:31.895Z,9.96
2019-04-03T05:21:24.560Z,9.80
2019-04-03T05:22:24.445Z,9.85
2019-04-03T05:24:17.134Z,9.88
2019-04-03T05:25:17.004Z,9.81
2019-04-03T05:27:10.037Z,9.80
2019-04-03T05:28:09.746Z,9.78
2019-04-03T05:30:05.285Z,9.92
2019-04-03T05:31:02.302Z,9.88
2019-04-03T05:32:54.974Z,10.05
2019-04-03T05:33:54.871Z,9.98
2019-04-03T05:35:47.762Z,9.98
2019-04-03T05:36:48.630Z,9.88
2019-04-03T05:38:40.088Z,9.93
2019-04-03T05:39:40.066Z,9.96
2019-04-03T05:41:32.658Z,9.95
2019-04-03T05:42:32.537Z,9.90
2019-04-03T05:44:25.291Z,9.95
2019-04-03T05:45:25.087Z,9.82
2019-04-03T05:47:17.764Z,9.89
2019-04-03T05:48:18.539Z,9.93
2019-04-03T05:50:10.303Z,9.95
2019-04-03T05:51:10.186Z,9.95
2019-04-03T05:53:05.673Z,10.10
2019-04-03T05:54:02.749Z,10.07
2019-04-03T05:55:55.416Z,10.07
2019-04-03T05:56:55.337Z,10.07
2019-04-03T05:58:55.564Z,10.07
2019-04-03T05:59:59.108Z,10.10
2019-04-03T06:01:42.646Z,10.00
2019-04-03T06:02:40.539Z,10.07
2019-04-03T06:04:33.119Z,9.85
2019-04-03T06:05:32.993Z,9.92
2019-04-03T06:07:25.666Z,9.84
2019-04-03T06:08:25.795Z,9.85
2019-04-03T06:10:18.229Z,9.96
2019-04-03T06:11:20.640Z,10.00
2019-04-03T06:13:10.758Z,10.02
2019-04-03T06:14:10.654Z,10.07
2019-04-03T06:16:03.348Z,10.18
2019-04-03T06:17:03.206Z,10.14
2019-04-03T06:18:56.949Z,10.15
2019-04-03T06:19:55.771Z,10.13
2019-04-03T06:21:48.472Z,10.17
2019-04-03T06:22:49.854Z,10.18
2019-04-03T06:24:41.140Z,10.14
2019-04-03T06:25:40.910Z,10.13
2019-04-03T06:27:33.591Z,10.17
2019-04-03T06:28:33.442Z,10.15
2019-04-03T06:30:26.392Z,10.15
2019-04-03T06:31:26.429Z,10.17
2019-04-03T06:33:18.700Z,10.20
2019-04-03T06:34:18.666Z,10.10
2019-04-03T06:36:11.232Z,10.14
2019-04-03T06:37:11.256Z,10.02
2019-04-03T06:39:03.808Z,9.95
2019-04-03T06:40:03.962Z,9.90
2019-04-03T06:41:56.355Z,9.92
2019-04-03T06:42:56.262Z,9.82
2019-04-03T06:44:48.933Z,9.82
2019-04-03T06:45:48.791Z,9.90
2019-04-03T06:47:41.458Z,9.80
2019-04-03T06:48:41.345Z,9.99
2019-04-03T06:50:34.036Z,9.95
2019-04-03T06:51:33.908Z,9.92
2019-04-03T06:53:28.325Z,9.92
2019-04-03T06:54:26.663Z,9.92
2019-04-03T06:56:19.283Z,10.02
2019-04-03T06:57:19.014Z,10.03
2019-04-03T06:59:11.686Z,10.05
2019-04-03T07:00:11.661Z,10.07
2019-04-03T07:02:04.265Z,9.95
2019-04-03T07:03:04.554Z,10.05
2019-04-03T07:04:56.796Z,9.80
2019-04-03T07:05:56.736Z,9.80
2019-04-03T07:07:49.410Z,9.74
2019-04-03T07:08:49.249Z,9.85
2019-04-03T07:10:54.271Z,9.80
2019-04-03T07:11:43.252Z,9.80
2019-04-03T07:13:34.505Z,9.85
2019-04-03T07:14:34.482Z,9.74
2019-04-03T07:16:28.594Z,9.88
2019-04-03T07:17:26.918Z,9.89
2019-04-03T07:19:19.819Z,10.00
2019-04-03T07:20:20.816Z,9.95
2019-04-03T07:22:12.207Z,9.95
2019-04-03T07:23:12.048Z,9.96
2019-04-03T07:25:04.731Z,9.74
2019-04-03T07:26:05.159Z,9.70
2019-04-03T07:27:57.262Z,9.72
2019-04-03T07:28:57.362Z,9.67
2019-04-03T07:30:52.329Z,9.66
2019-04-03T07:31:49.726Z,9.66
2019-04-03T07:33:42.379Z,9.67
2019-04-03T07:34:42.261Z,9.72
2019-04-03T07:36:34.982Z,9.72
2019-04-03T07:37:35.062Z,9.78
2019-04-03T07:39:27.506Z,9.80
2019-04-03T07:40:27.589Z,9.81
2019-04-03T07:42:20.081Z,9.63
2019-04-03T07:43:19.950Z,9.64
2019-04-03T07:45:12.625Z,9.72
2019-04-03T07:46:12.508Z,9.78
2019-04-03T07:48:06.688Z,9.84
2019-04-03T07:49:05.066Z,9.84
2019-04-03T07:50:57.729Z,9.82
2019-04-03T07:51:57.625Z,9.99
2019-04-03T07:53:51.272Z,9.93
2019-04-03T07:54:51.871Z,9.96
2019-04-03T07:56:43.123Z,10.10
2019-04-03T07:57:42.734Z,10.11
2019-04-03T07:59:35.430Z,10.13
2019-04-03T08:00:36.239Z,10.14
2019-04-03T08:02:28.121Z,10.18
2019-04-03T08:03:27.864Z,10.18
2019-04-03T08:05:20.724Z,10.33
2019-04-03T08:06:20.407Z,10.25
2019-04-03T08:08:13.239Z,10.32
2019-04-03T08:09:12.973Z,10.35
2019-04-03T08:11:06.656Z,10.35
2019-04-03T08:12:06.636Z,10.31
2019-04-03T08:13:59.209Z,10.10
2019-04-03T08:14:59.240Z,10.11
2019-04-03T08:16:51.905Z,9.96
2019-04-03T08:17:51.666Z,10.00
2019-04-03T08:19:45.445Z,10.00
2019-04-03T08:20:44.195Z,10.10
2019-04-03T08:22:36.929Z,9.93
2019-04-03T08:23:37.628Z,9.93
2019-04-03T08:25:29.428Z,9.78
2019-04-03T08:26:29.316Z,9.84
2019-04-03T08:28:22.361Z,9.96
2019-04-03T08:29:22.059Z,9.92
2019-04-03T08:31:14.542Z,9.95
2019-04-03T08:32:16.173Z,9.96
2019-04-03T08:34:15.542Z,9.81
2019-04-03T08:35:19.502Z,9.88
2019-04-03T08:37:01.559Z,9.85
2019-04-03T08:37:59.548Z,9.95
2019-04-03T08:39:52.268Z,9.99
2019-04-03T08:40:53.342Z,10.03
2019-04-03T08:42:44.779Z,10.14
2019-04-03T08:43:44.659Z,10.26
2019-04-03T08:45:38.422Z,9.84
2019-04-03T08:46:37.443Z,9.85
2019-04-03T08:48:29.875Z,9.95
2019-04-03T08:49:29.769Z,9.92
2019-04-03T08:51:22.456Z,10.02
2019-04-03T08:52:22.330Z,10.17
2019-04-03T08:54:15.478Z,10.13
2019-04-03T08:55:15.379Z,10.18
2019-04-03T08:57:08.161Z,10.17
2019-04-03T08:58:07.924Z,10.31
2019-04-03T09:00:01.318Z,10.36
2019-04-03T09:01:03.660Z,10.33
2019-04-03T09:02:53.166Z,10.47
2019-04-03T09:03:53.227Z,10.49
2019-04-03T09:05:45.745Z,10.51
2019-04-03T09:06:45.613Z,10.63
2019-04-03T09:08:38.308Z,10.57
2019-04-03T09:09:38.377Z,10.55
2019-04-03T09:11:31.188Z,10.52
2019-04-03T09:12:30.831Z,10.61
2019-04-03T09:14:25.004Z,10.72
2019-04-03T09:15:23.294Z,10.61
2019-04-03T09:17:15.973Z,10.55
2019-04-03T09:18:15.848Z,10.52
2019-04-03T09:20:08.855Z,10.52
2019-04-03T09:21:08.508Z,10.49
2019-04-03T09:23:01.107Z,10.49
2019-04-03T09:24:01.244Z,10.31
2019-04-03T09:25:54.000Z,10.32
2019-04-03T09:26:53.575Z,10.38
2019-04-03T09:28:46.224Z,10.35
2019-04-03T09:29:46.111Z,10.32
2019-04-03T09:31:39.803Z,10.29
2019-04-03T09:32:39.913Z,10.14
2019-04-03T09:34:34.271Z,10.03
2019-04-03T09:35:33.092Z,10.11
2019-04-03T09:37:25.094Z,9.98
2019-04-03T09:38:24.790Z,10.00
2019-04-03T09:40:17.917Z,9.96
2019-04-03T09:41:19.568Z,10.05
2019-04-03T09:43:10.380Z,10.18
2019-04-03T09:44:10.007Z,10.10
2019-04-03T09:46:02.589Z,10.18
2019-04-03T09:47:03.189Z,10.25
2019-04-03T09:48:55.169Z,10.36
2019-04-03T09:49:55.245Z,10.41
2019-04-03T09:51:47.717Z,10.42
2019-04-03T09:52:49.936Z,10.67
2019-04-03T09:54:40.622Z,10.63
2019-04-03T09:55:40.167Z,10.59
2019-04-03T09:57:33.106Z,10.61
2019-04-03T09:58:32.912Z,10.61
2019-04-03T10:00:25.424Z,10.61
2019-04-03T10:01:25.271Z,10.65
2019-04-03T10:03:18.175Z,10.69
2019-04-03T10:04:20.348Z,10.66
2019-04-03T10:06:10.748Z,10.65
2019-04-03T10:07:10.535Z,10.61
2019-04-03T10:09:03.160Z,10.61
2019-04-03T10:10:02.954Z,10.67
2019-04-03T10:11:55.636Z,10.84
2019-04-03T10:12:55.530Z,10.90
2019-04-03T10:14:48.364Z,11.12
2019-04-03T10:15:48.263Z,11.13
2019-04-03T10:17:40.761Z,11.31
2019-04-03T10:18:41.781Z,11.31
2019-04-03T10:20:33.332Z,11.20
2019-04-03T10:21:33.766Z,11.33
2019-04-03T10:23:26.607Z,11.34
2019-04-03T10:24:25.782Z,11.23
2019-04-03T10:26:18.630Z,11.28
2019-04-03T10:27:18.347Z,11.30
2019-04-03T10:29:11.032Z,11.33
2019-04-03T10:30:10.899Z,11.28
2019-04-03T10:32:03.686Z,11.33
2019-04-03T10:33:03.470Z,11.52
2019-04-03T10:34:57.757Z,11.48
2019-04-03T10:35:56.041Z,11.52
2019-04-03T10:37:48.751Z,11.66
2019-04-03T10:38:49.084Z,11.67
2019-04-03T10:40:41.295Z,11.78
2019-04-03T10:41:41.177Z,11.68
2019-04-03T10:43:36.205Z,11.76
2019-04-03T10:44:33.739Z,11.75
2019-04-03T10:46:26.422Z,11.76
2019-04-03T10:47:39.754Z,11.81
2019-04-03T10:49:18.961Z,11.84
2019-04-03T10:50:18.850Z,11.82
2019-04-03T10:52:13.370Z,11.98
2019-04-03T10:53:11.415Z,12.05
2019-04-03T10:55:04.117Z,12.13
2019-04-03T10:56:04.308Z,12.28
2019-04-03T10:57:56.695Z,12.25
2019-04-03T10:59:09.155Z,12.38
2019-04-03T11:00:49.416Z,12.47
2019-04-03T11:01:49.137Z,12.61
2019-04-03T11:03:41.837Z,12.78
2019-04-03T11:04:41.691Z,12.84
2019-04-03T11:06:36.722Z,12.80
2019-04-03T11:07:34.709Z,12.63
2019-04-03T11:09:26.962Z,12.33
2019-04-03T11:10:26.836Z,12.33
2019-04-03T11:12:19.503Z,12.33
2019-04-03T11:13:19.393Z,12.25
2019-04-03T11:15:12.706Z,12.34
2019-04-03T11:16:13.145Z,12.34
2019-04-03T11:18:05.152Z,12.38
2019-04-03T11:19:06.980Z,12.47
2019-04-03T11:20:57.894Z,12.43
2019-04-03T11:21:57.612Z,12.63
2019-04-03T11:23:50.284Z,12.71
2019-04-03T11:24:50.198Z,12.73
2019-04-03T11:26:42.935Z,12.61
2019-04-03T11:27:44.815Z,12.88
2019-04-03T11:29:35.436Z,12.95
2019-04-03T11:30:35.306Z,13.10
2019-04-03T11:32:28.289Z,13.11
2019-04-03T11:33:27.907Z,12.92
2019-04-03T11:35:22.059Z,13.02
2019-04-03T11:36:20.848Z,12.84
2019-04-03T11:38:20.837Z,12.88
2019-04-03T11:39:15.668Z,13.07
2019-04-03T11:41:12.850Z,13.19
2019-04-03T11:42:05.602Z,13.37
2019-04-03T11:43:58.541Z,13.51
2019-04-03T11:44:58.404Z,13.37
2019-04-03T11:46:51.147Z,13.03
2019-04-03T11:47:50.750Z,13.07
2019-04-03T11:49:43.451Z,12.86
2019-04-03T11:50:43.334Z,12.84
2019-04-03T11:52:35.994Z,12.73
2019-04-03T11:53:36.028Z,12.70
2019-04-03T11:55:28.873Z,12.73
2019-04-03T11:56:28.658Z,12.74
2019-04-03T11:58:22.041Z,12.76
2019-04-03T11:59:23.372Z,12.91
2019-04-03T12:01:15.884Z,12.89
2019-04-03T12:02:13.937Z,13.11
2019-04-03T12:04:06.265Z,13.09
2019-04-03T12:05:06.163Z,13.13
2019-04-03T12:06:58.862Z,13.20
2019-04-03T12:07:58.731Z,13.31
2019-04-03T12:09:51.439Z,13.60
2019-04-03T12:10:51.307Z,13.63
2019-04-03T12:12:44.005Z,13.76
2019-04-03T12:13:45.609Z,13.73
2019-04-03T12:15:36.890Z,13.62
2019-04-03T12:16:36.455Z,13.57
2019-04-03T12:18:29.451Z,13.19
2019-04-03T12:19:29.317Z,13.09
2019-04-03T12:21:21.706Z,13.09
2019-04-03T12:22:22.590Z,13.02
2019-04-03T12:24:14.302Z,13.03
2019-04-03T12:25:14.197Z,12.96
2019-04-03T12:27:06.845Z,12.83
2019-04-03T12:28:07.503Z,12.88
2019-04-03T12:29:59.598Z,12.94
2019-04-03T12:30:59.303Z,12.96
2019-04-03T12:32:51.983Z,13.14
2019-04-03T12:33:58.263Z,13.29
2019-04-03T12:35:44.575Z,13.50
2019-04-03T12:36:46.183Z,13.53
2019-04-03T12:38:37.541Z,13.69
2019-04-03T12:39:37.009Z,13.79
2019-04-03T12:41:29.824Z,13.83
2019-04-03T12:42:29.926Z,13.76
2019-04-03T12:44:22.678Z,13.81
2019-04-03T12:45:22.150Z,13.99
2019-04-03T12:47:15.048Z,13.95
2019-04-03T12:48:16.880Z,13.86
2019-04-03T12:50:07.599Z,13.94
2019-04-03T12:51:07.523Z,13.79
2019-04-03T12:52:59.989Z,13.87
2019-04-03T12:53:59.858Z,13.78
2019-04-03T12:55:54.052Z,13.78
2019-04-03T12:56:52.578Z,13.70
2019-04-03T12:58:45.247Z,13.39
2019-04-03T12:59:46.726Z,13.39
2019-04-03T13:01:37.824Z,13.06
2019-04-03T13:02:37.976Z,12.91
2019-04-03T13:04:32.200Z,12.94
2019-04-03T13:05:30.169Z,12.86
2019-04-03T13:07:23.081Z,12.53
2019-04-03T13:08:22.989Z,12.58
2019-04-03T13:10:15.499Z,12.37
2019-04-03T13:11:15.493Z,12.25
2019-04-03T13:13:08.074Z,12.37
2019-04-03T13:14:08.297Z,12.44
2019-04-03T13:16:00.572Z,12.53
2019-04-03T13:17:00.597Z,12.53
2019-04-03T13:18:53.160Z,12.59
2019-04-03T13:19:53.020Z,12.59
2019-04-03T13:21:46.081Z,12.65
2019-04-03T13:22:45.582Z,12.63
2019-04-03T13:24:38.278Z,12.71
2019-04-03T13:25:38.147Z,12.71
2019-04-03T13:27:31.834Z,12.63
2019-04-03T13:28:30.725Z,12.63
2019-04-03T13:30:23.557Z,12.59
2019-04-03T13:31:23.282Z,12.63
2019-04-03T13:33:17.218Z,12.70
2019-04-03T13:34:15.848Z,12.69
2019-04-03T13:36:08.597Z,12.92
2019-04-03T13:37:08.662Z,13.09
2019-04-03T13:39:01.597Z,13.40
2019-04-03T13:40:01.195Z,13.60
2019-04-03T13:41:53.996Z,13.90
2019-04-03T13:42:53.832Z,14.05
2019-04-03T13:44:46.239Z,13.99
2019-04-03T13:45:46.121Z,14.11
2019-04-03T13:47:41.722Z,14.15
2019-04-03T13:48:38.689Z,14.13
2019-04-03T13:50:31.598Z,14.08
2019-04-03T13:51:31.262Z,14.11
2019-04-03T13:53:25.540Z,14.45
2019-04-03T13:54:26.235Z,14.39
2019-04-03T13:56:16.534Z,14.15
2019-04-03T13:57:16.393Z,14.05
2019-04-03T13:59:09.065Z,14.09
2019-04-03T14:00:18.150Z,14.02
2019-04-03T14:02:02.056Z,13.58
2019-04-03T14:03:01.579Z,13.47
2019-04-03T14:04:56.415Z,13.39
2019-04-03T14:05:54.419Z,13.54
2019-04-03T14:07:47.103Z,13.62
2019-04-03T14:08:46.751Z,13.39
2019-04-03T14:10:39.381Z,13.51
2019-04-03T14:11:39.262Z,13.57
2019-04-03T14:13:31.980Z,13.81
2019-04-03T14:14:31.847Z,13.90
2019-04-03T14:16:24.573Z,13.93
2019-04-03T14:17:24.713Z,13.76
2019-04-03T14:19:17.102Z,13.76
2019-04-03T14:20:16.981Z,13.72
2019-04-03T14:22:09.940Z,13.87
2019-04-03T14:23:09.853Z,13.95
2019-04-03T14:25:02.248Z,13.99
2019-04-03T14:26:05.242Z,13.91
2019-04-03T14:27:54.789Z,13.65
2019-04-03T14:28:54.685Z,13.62
2019-04-03T14:30:48.009Z,13.66
2019-04-03T14:31:48.956Z,13.45
2019-04-03T14:33:45.055Z,13.42
2019-04-03T14:34:40.864Z,13.39
2019-04-03T14:36:33.569Z,13.39
2019-04-03T14:37:33.433Z,13.21
2019-04-03T14:39:26.492Z,13.17
2019-04-03T14:40:25.998Z,13.14
2019-04-03T14:42:18.732Z,12.86
2019-04-03T14:43:18.929Z,12.86
2019-04-03T14:45:14.695Z,12.83
2019-04-03T14:46:11.149Z,12.69
2019-04-03T14:48:04.026Z,12.63
2019-04-03T14:49:04.302Z,12.61
2019-04-03T14:50:56.521Z,12.59
2019-04-03T14:51:56.277Z,12.56
2019-04-03T14:53:50.054Z,12.48
2019-04-03T14:54:48.832Z,12.47
2019-04-03T14:56:41.508Z,12.48
2019-04-03T14:57:41.434Z,12.40
2019-04-03T14:59:35.241Z,12.23
2019-04-03T15:00:33.964Z,12.26
2019-04-03T15:02:26.828Z,12.33
2019-04-03T15:03:27.953Z,12.47
2019-04-03T15:05:19.255Z,12.43
2019-04-03T15:06:19.111Z,12.55
2019-04-03T15:08:11.778Z,12.63
2019-04-03T15:09:14.062Z,12.59
2019-04-03T15:11:04.534Z,12.58
2019-04-03T15:12:05.843Z,12.63
2019-04-03T15:13:57.365Z,12.61
2019-04-03T15:14:57.118Z,12.69
2019-04-03T15:16:49.709Z,12.65
2019-04-03T15:17:49.388Z,12.73
2019-04-03T15:19:43.147Z,13.01
2019-04-03T15:20:42.395Z,12.88
2019-04-03T15:22:34.764Z,12.84
2019-04-03T15:23:39.994Z,12.88
2019-04-03T15:25:27.205Z,12.76
2019-04-03T15:26:27.103Z,12.70
2019-04-03T15:28:19.791Z,12.59
2019-04-03T15:29:19.664Z,12.62
2019-04-03T15:31:14.310Z,12.63
2019-04-03T15:32:12.226Z,12.58
2019-04-03T15:34:05.011Z,12.45
2019-04-03T15:35:04.783Z,12.45
2019-04-03T15:36:57.461Z,12.62
2019-04-03T15:37:57.359Z,12.65
2019-04-03T15:39:56.949Z,12.69
2019-04-03T15:40:50.058Z,12.65
2019-04-03T15:42:43.550Z,12.61
2019-04-03T15:43:45.373Z,12.61
2019-04-03T15:45:35.668Z,12.74
2019-04-03T15:46:35.545Z,12.74
2019-04-03T15:48:28.264Z,12.86
2019-04-03T15:49:28.555Z,12.95
2019-04-03T15:51:21.921Z,12.99
2019-04-03T15:52:21.692Z,13.01
2019-04-03T15:54:14.553Z,12.77
2019-04-03T15:55:14.267Z,12.71
2019-04-03T15:57:06.953Z,12.59
2019-04-03T15:58:07.114Z,12.56
2019-04-03T16:00:01.840Z,12.58
2019-04-03T16:00:59.525Z,12.62
2019-04-03T16:02:52.400Z,12.58
2019-04-03T16:03:52.373Z,12.52
2019-04-03T16:05:44.660Z,12.51
2019-04-03T16:06:45.032Z,12.59
2019-04-03T16:08:37.237Z,12.56
2019-04-03T16:09:37.106Z,12.56
2019-04-03T16:11:30.716Z,12.52
2019-04-03T16:12:29.704Z,12.59
2019-04-03T16:14:22.417Z,12.56
2019-04-03T16:15:23.242Z,12.59
2019-04-03T16:17:14.923Z,12.45
2019-04-03T16:18:14.828Z,12.48
2019-04-03T16:20:08.527Z,12.41
2019-04-03T16:21:08.475Z,12.47
2019-04-03T16:23:01.351Z,12.26
2019-04-03T16:24:00.936Z,12.26
2019-04-03T16:25:53.638Z,12.18
2019-04-03T16:26:56.257Z,12.18
2019-04-03T16:28:47.417Z,12.10
2019-04-03T16:29:47.135Z,12.11
2019-04-03T16:31:39.788Z,12.15
2019-04-03T16:32:39.975Z,12.15
2019-04-03T16:34:32.422Z,12.22
2019-04-03T16:35:32.427Z,12.16
2019-04-03T16:37:25.466Z,12.15
2019-04-03T16:38:28.050Z,12.19
2019-04-03T16:40:18.439Z,12.20
2019-04-03T16:41:18.320Z,12.25
2019-04-03T16:43:11.434Z,12.16
2019-04-03T16:44:10.886Z,12.29
2019-04-03T16:46:03.561Z,12.26
2019-04-03T16:47:03.831Z,12.19
2019-04-03T16:48:56.483Z,12.10
2019-04-03T16:49:56.020Z,12.08
2019-04-03T16:51:48.669Z,12.05
2019-04-03T16:52:48.570Z,12.04
2019-04-03T16:54:43.749Z,12.08
2019-04-03T16:55:41.115Z,12.10
2019-04-03T16:57:33.795Z,12.04
2019-04-03T16:58:33.679Z,12.11
2019-04-03T17:00:26.388Z,12.01
2019-04-03T17:01:26.242Z,12.13
2019-04-03T17:03:18.916Z,12.08
2019-04-03T17:04:26.151Z,12.07
2019-04-03T17:06:15.341Z,12.08
2019-04-03T17:07:11.356Z,12.04
2019-04-03T17:09:04.031Z,11.97
2019-04-03T17:10:03.922Z,12.01
2019-04-03T17:11:56.622Z,12.03
2019-04-03T17:12:56.488Z,11.85
2019-04-03T17:14:49.159Z,11.95
2019-04-03T17:15:49.049Z,11.94
2019-04-03T17:17:44.727Z,11.79
2019-04-03T17:18:41.611Z,11.85
2019-04-03T17:20:34.362Z,11.84
2019-04-03T17:21:37.639Z,11.84
2019-04-03T17:23:26.871Z,11.78
2019-04-03T17:24:26.942Z,11.82
2019-04-03T17:26:19.395Z,11.68
2019-04-03T17:27:19.294Z,11.70
2019-04-03T17:29:13.920Z,11.71
2019-04-03T17:30:12.311Z,11.68
2019-04-03T17:32:07.799Z,11.64
2019-04-03T17:33:04.644Z,11.68
2019-04-03T17:34:57.445Z,11.66
2019-04-03T17:35:56.974Z,11.64
2019-04-03T17:37:49.634Z,11.53
2019-04-03T17:38:49.526Z,11.45
2019-04-03T17:40:42.220Z,11.51
2019-04-03T17:41:42.093Z,11.45
2019-04-03T17:43:34.766Z,11.42
2019-04-03T17:44:34.654Z,11.42
2019-04-03T17:46:27.352Z,11.41
2019-04-03T17:47:27.222Z,11.42
2019-04-03T17:49:19.886Z,11.39
2019-04-03T17:50:19.770Z,11.35
2019-04-03T17:52:12.465Z,11.33
2019-04-03T17:53:12.339Z,11.42
2019-04-03T17:55:05.008Z,11.43
2019-04-03T17:56:04.895Z,11.38
2019-04-03T17:57:57.586Z,11.31
2019-04-03T17:58:57.458Z,11.43
2019-04-03T18:00:52.162Z,11.30
2019-04-03T18:01:52.166Z,11.21
2019-04-03T18:03:42.704Z,11.28
2019-04-03T18:04:42.580Z,11.30
2019-04-03T18:06:35.246Z,11.24
2019-04-03T18:07:37.131Z,11.23
2019-04-03T18:09:27.821Z,11.15
2019-04-03T18:10:27.695Z,11.26
2019-04-03T18:12:21.886Z,11.26
2019-04-03T18:13:23.220Z,11.24
2019-04-03T18:15:12.924Z,11.18
2019-04-03T18:16:13.443Z,11.21
2019-04-03T18:18:05.503Z,11.16
2019-04-03T18:19:05.510Z,11.21
2019-04-03T18:20:58.045Z,11.20
2019-04-03T18:21:57.934Z,11.21
2019-04-03T18:23:52.652Z,11.21
2019-04-03T18:24:51.861Z,11.15
2019-04-03T18:26:44.967Z,11.21
2019-04-03T18:27:43.052Z,11.26
2019-04-03T18:29:37.259Z,11.26
2019-04-03T18:30:35.627Z,11.23
2019-04-03T18:32:29.874Z,11.27
2019-04-03T18:33:28.170Z,11.24
2019-04-03T18:35:20.886Z,11.16
2019-04-03T18:36:20.751Z,11.13
2019-04-03T18:38:13.422Z,11.09
2019-04-03T18:39:13.295Z,11.05
2019-04-03T18:41:05.994Z,11.08
2019-04-03T18:42:05.892Z,11.09
2019-04-03T18:43:58.543Z,11.13
2019-04-03T18:44:58.429Z,11.06
2019-04-03T18:46:51.605Z,11.16
2019-04-03T18:47:51.476Z,11.10
2019-04-03T18:49:44.158Z,11.15
2019-04-03T18:50:44.068Z,11.23
2019-04-03T18:52:38.466Z,11.12
2019-04-03T18:53:36.616Z,11.23
2019-04-03T18:55:29.270Z,11.16
2019-04-03T18:56:31.930Z,11.15
2019-04-03T18:58:22.341Z,11.23
2019-04-03T18:59:21.725Z,11.18
2019-04-03T19:01:16.948Z,11.18
2019-04-03T19:02:14.289Z,11.20
2019-04-03T19:04:07.241Z,11.16
2019-04-03T19:05:09.035Z,11.27
2019-04-03T19:06:59.523Z,11.12
2019-04-03T19:08:12.067Z,11.05
2019-04-03T19:09:52.551Z,10.95
2019-04-03T19:11:01.525Z,11.03
2019-04-03T19:12:44.662Z,10.84
2019-04-03T19:13:45.600Z,10.91
2019-04-03T19:15:37.244Z,10.92
2019-04-03T19:16:44.332Z,10.92
2019-04-03T19:18:31.978Z,10.84
2019-04-03T19:19:29.674Z,10.83
2019-04-03T19:21:25.516Z,10.80
2019-04-03T19:22:25.384Z,10.90
2019-04-03T19:24:14.939Z,10.85
2019-04-03T19:25:14.792Z,10.85
2019-04-03T19:27:07.484Z,10.77
2019-04-03T19:28:07.369Z,10.77
2019-04-03T19:30:00.013Z,10.84
2019-04-03T19:30:59.902Z,10.83
2019-04-03T19:32:52.600Z,10.84
2019-04-03T19:33:52.462Z,10.91
2019-04-03T19:35:45.134Z,10.83
2019-04-03T19:36:45.062Z,10.88
2019-04-03T19:38:37.714Z,10.83
2019-04-03T19:39:37.785Z,10.79
2019-04-03T19:41:30.297Z,10.80
2019-04-03T19:42:30.165Z,10.84
2019-04-03T19:44:22.851Z,10.66
2019-04-03T19:45:22.724Z,10.73
2019-04-03T19:47:15.383Z,10.70
2019-04-03T19:48:15.270Z,10.66
2019-04-03T19:50:07.953Z,10.61
2019-04-03T19:51:07.825Z,10.66
2019-04-03T19:53:00.491Z,10.61
2019-04-03T19:54:00.382Z,10.63
2019-04-03T19:55:54.742Z,10.65
2019-04-03T19:56:52.945Z,10.65
2019-04-03T19:58:45.609Z,10.54
2019-04-03T19:59:45.498Z,10.55
2019-04-03T20:01:39.033Z,10.54
2019-04-03T20:02:38.604Z,10.42
2019-04-03T20:04:30.755Z,10.46
2019-04-03T20:05:30.621Z,10.44
2019-04-03T20:07:24.829Z,10.36
2019-04-03T20:08:23.683Z,10.25
2019-04-03T20:10:16.352Z,10.38
2019-04-03T20:11:16.241Z,10.33
2019-04-03T20:13:09.299Z,10.18
2019-04-03T20:14:11.268Z,10.10
2019-04-03T20:16:01.465Z,10.15
2019-04-03T20:17:01.357Z,10.08
2019-04-03T20:18:56.271Z,10.14
2019-04-03T20:19:53.920Z,10.20
2019-04-03T20:21:46.644Z,10.05
2019-04-03T20:22:46.487Z,10.05
2019-04-03T20:24:39.174Z,9.92
2019-04-03T20:25:39.046Z,9.96
2019-04-03T20:27:31.844Z,9.93
2019-04-03T20:28:31.641Z,9.84
2019-04-03T20:30:24.281Z,9.85
2019-04-03T20:31:24.154Z,9.82
2019-04-03T20:33:16.835Z,9.84
2019-04-03T20:34:16.717Z,9.78
2019-04-03T20:36:09.392Z,9.75
2019-04-03T20:37:09.265Z,9.74
2019-04-03T20:39:04.170Z,9.80
2019-04-03T20:40:01.820Z,9.72
2019-04-03T20:41:54.537Z,9.77
2019-04-03T20:42:54.380Z,9.82
2019-04-03T20:44:48.633Z,9.78
2019-04-03T20:45:49.416Z,9.75
2019-04-03T20:47:39.614Z,9.72
2019-04-03T20:48:39.501Z,9.67
2019-04-03T20:50:32.201Z,9.74
2019-04-03T20:51:32.065Z,9.74
2019-04-03T20:53:24.737Z,9.81
2019-04-03T20:54:24.632Z,9.78
2019-04-03T20:56:17.318Z,9.74
2019-04-03T20:57:17.177Z,9.77
2019-04-03T20:59:12.030Z,9.75
2019-04-03T21:00:09.734Z,9.72
2019-04-03T21:02:02.443Z,9.81
2019-04-03T21:03:02.298Z,9.81
2019-04-03T21:04:54.954Z,9.72
2019-04-03T21:05:54.837Z,9.63
2019-04-03T21:07:47.528Z,9.64
2019-04-03T21:08:47.399Z,9.71
2019-04-03T21:10:40.083Z,9.70
2019-04-03T21:11:39.965Z,9.60
2019-04-03T21:13:34.136Z,9.66
2019-04-03T21:14:34.014Z,9.52
2019-04-03T21:16:33.188Z,9.63
2019-04-03T21:17:26.558Z,9.63
2019-04-03T21:19:21.265Z,9.52
2019-04-03T21:20:19.106Z,9.59
2019-04-03T21:22:11.772Z,9.55
2019-04-03T21:23:11.668Z,9.60
2019-04-03T21:25:05.415Z,9.60
2019-04-03T21:26:06.675Z,9.55
2019-04-03T21:27:56.896Z,9.57
2019-04-03T21:28:56.781Z,9.57
2019-04-03T21:30:49.495Z,9.59
2019-04-03T21:31:49.334Z,9.56
2019-04-03T21:33:44.805Z,9.52
2019-04-03T21:34:42.923Z,9.57
2019-04-03T21:36:34.583Z,9.56
2019-04-03T21:37:34.448Z,9.62
2019-04-03T21:39:27.131Z,9.62
2019-04-03T21:40:27.001Z,9.53
2019-04-03T21:42:19.688Z,9.62
2019-04-03T21:43:19.559Z,9.53
2019-04-03T21:45:12.229Z,9.55
2019-04-03T21:46:12.112Z,9.53
2019-04-03T21:48:04.818Z,9.59
2019-04-03T21:49:04.676Z,9.48
2019-04-03T21:50:57.345Z,9.57
2019-04-03T21:51:57.251Z,9.55
2019-04-03T21:53:49.969Z,9.56
2019-04-03T21:54:49.811Z,9.59
2019-04-03T21:56:42.473Z,9.67
2019-04-03T21:57:42.365Z,9.57
2019-04-03T21:59:35.052Z,9.53
